LFRQ 210400Z AUTO 02004KT 9999 OVC035 02/M00 Q1038

ElémentsDécodage
LFRQ Station météo située sur l'aérodrome de QUIMPER Pluguffan
210400Z émis le 21 du mois à 04h00 UTC
AUTO Bulletin édité par un automate
02004KT vent du 020°, 04 noeuds
9999 visibilité horizontale supérieure à 10 Km
OVC035 couverture nuageuse totale (8/8) à 3500 pieds
02/M00 température 02°C, point de rosée 00°C
 soit une humidité relative de 87%
Q1038 la pression au niveau de la mer (QNH) est de 1038 hPa